sensor_id;sensor_type;location;lat;lon;timestamp;pressure;altitude;pressure_sealevel;temperature;humidity
47430;BME280;33181;49.246;7.372;2023-11-19T00:00:27;98709.56;;;8.95;100.00
47430;BME280;33181;49.246;7.372;2023-11-19T00:02:53;98699.94;;;8.95;100.00
47430;BME280;33181;49.246;7.372;2023-11-19T00:05:19;98702.66;;;8.94;100.00
47430;BME280;33181;49.246;7.372;2023-11-19T00:07:45;98708.88;;;9.04;100.00
47430;BME280;33181;49.246;7.372;2023-11-19T00:10:13;98721.97;;;9.04;100.00
47430;BME280;33181;49.246;7.372;2023-11-19T00:12:44;98708.78;;;9.05;100.00
47430;BME280;33181;49.246;7.372;2023-11-19T00:15:11;98708.66;;;9.07;100.00
47430;BME280;33181;49.246;7.372;2023-11-19T00:17:41;98703.75;;;9.02;100.00
47430;BME280;33181;49.246;7.372;2023-11-19T00:20:28;98690.53;;;9.04;100.00
47430;BME280;33181;49.246;7.372;2023-11-19T00:22:54;98683.41;;;9.06;100.00
47430;BME280;33181;49.246;7.372;2023-11-19T00:25:21;98690.56;;;9.15;100.00
47430;BME280;33181;49.246;7.372;2023-11-19T00:27:50;98681.06;;;9.14;100.00
47430;BME280;33181;49.246;7.372;2023-11-19T00:30:17;98683.91;;;9.22;100.00
47430;BME280;33181;49.246;7.372;2023-11-19T00:32:43;98685.88;;;9.08;100.00
47430;BME280;33181;49.246;7.372;2023-11-19T00:35:09;98690.56;;;9.15;100.00
47430;BME280;33181;49.246;7.372;2023-11-19T00:37:39;98681.75;;;9.16;100.00
47430;BME280;33181;49.246;7.372;2023-11-19T00:40:06;98681.97;;;9.13;100.00
47430;BME280;33181;49.246;7.372;2023-11-19T00:42:32;98686.75;;;9.19;100.00
47430;BME280;33181;49.246;7.372;2023-11-19T00:44:58;98686.53;;;9.22;100.00
47430;BME280;33181;49.246;7.372;2023-11-19T00:47:24;98660.31;;;9.11;100.00
47430;BME280;33181;49.246;7.372;2023-11-19T00:49:50;98659.94;;;9.16;100.00
47430;BME280;33181;49.246;7.372;2023-11-19T00:52:19;98667.22;;;9.12;100.00
47430;BME280;33181;49.246;7.372;2023-11-19T00:54:45;98677.94;;;9.20;100.00
47430;BME280;33181;49.246;7.372;2023-11-19T00:57:10;98689.88;;;9.24;100.00
47430;BME280;33181;49.246;7.372;2023-11-19T00:59:36;98694.06;;;9.27;100.00
47430;BME280;33181;49.246;7.372;2023-11-19T01:02:03;98685.56;;;9.23;100.00
47430;BME280;33181;49.246;7.372;2023-11-19T01:04:34;98686.28;;;9.14;100.00
47430;BME280;33181;49.246;7.372;2023-11-19T01:07:02;98691.16;;;9.19;100.00
47430;BME280;33181;49.246;7.372;2023-11-19T01:09:34;98682.13;;;9.23;100.00
47430;BME280;33181;49.246;7.372;2023-11-19T01:12:02;98675.94;;;9.24;100.00
47430;BME280;33181;49.246;7.372;2023-11-19T01:14:29;98676.53;;;9.27;100.00
47430;BME280;33181;49.246;7.372;2023-11-19T01:16:55;98659.81;;;9.17;100.00
47430;BME280;33181;49.246;7.372;2023-11-19T01:19:24;98661.97;;;9.23;100.00
47430;BME280;33181;49.246;7.372;2023-11-19T01:21:50;98661.75;;;9.26;100.00
47430;BME280;33181;49.246;7.372;2023-11-19T01:24:16;98664.75;;;9.44;100.00
47430;BME280;33181;49.246;7.372;2023-11-19T01:26:43;98657.00;;;9.43;100.00
47430;BME280;33181;49.246;7.372;2023-11-19T01:29:12;98655.56;;;9.39;100.00
47430;BME280;33181;49.246;7.372;2023-11-19T01:31:45;98659.84;;;9.51;100.00
47430;BME280;33181;49.246;7.372;2023-11-19T01:34:11;98664.16;;;9.52;100.00
47430;BME280;33181;49.246;7.372;2023-11-19T01:36:37;98660.94;;;9.37;100.00
47430;BME280;33181;49.246;7.372;2023-11-19T01:39:03;98664.38;;;9.38;100.00
47430;BME280;33181;49.246;7.372;2023-11-19T01:41:35;98658.44;;;9.47;100.00
47430;BME280;33181;49.246;7.372;2023-11-19T01:44:02;98652.00;;;9.51;100.00
47430;BME280;33181;49.246;7.372;2023-11-19T01:46:28;98650.66;;;9.45;100.00
47430;BME280;33181;49.246;7.372;2023-11-19T01:48:54;98659.84;;;9.51;100.00
47430;BME280;33181;49.246;7.372;2023-11-19T01:51:21;98653.53;;;9.54;100.00
47430;BME280;33181;49.246;7.372;2023-11-19T01:53:48;98647.22;;;9.56;100.00
47430;BME280;33181;49.246;7.372;2023-11-19T01:56:15;98644.25;;;9.49;100.00
47430;BME280;33181;49.246;7.372;2023-11-19T01:58:43;98648.19;;;9.44;100.00
47430;BME280;33181;49.246;7.372;2023-11-19T02:01:11;98634.72;;;9.48;100.00
47430;BME280;33181;49.246;7.372;2023-11-19T02:03:38;98626.47;;;9.42;100.00
47430;BME280;33181;49.246;7.372;2023-11-19T02:06:04;98629.81;;;9.55;100.00
47430;BME280;33181;49.246;7.372;2023-11-19T02:08:30;98622.66;;;9.57;100.00
47430;BME280;33181;49.246;7.372;2023-11-19T02:10:56;98627.56;;;9.62;100.00
47430;BME280;33181;49.246;7.372;2023-11-19T02:13:23;98618.25;;;9.58;100.00
47430;BME280;33181;49.246;7.372;2023-11-19T02:15:49;98620.53;;;9.62;100.00
47430;BME280;33181;49.246;7.372;2023-11-19T02:18:26;98615.63;;;9.58;100.00
47430;BME280;33181;49.246;7.372;2023-11-19T02:20:59;98617.91;;;9.62;100.00
47430;BME280;33181;49.246;7.372;2023-11-19T02:23:29;98614.56;;;9.60;100.00
47430;BME280;33181;49.246;7.372;2023-11-19T02:26:31;98616.59;;;9.57;100.00
47430;BME280;33181;49.246;7.372;2023-11-19T02:28:58;98605.72;;;9.61;100.00
47430;BME280;33181;49.246;7.372;2023-11-19T02:31:24;98605.88;;;9.60;100.00
47430;BME280;33181;49.246;7.372;2023-11-19T02:33:50;98605.97;;;9.58;100.00
47430;BME280;33181;49.246;7.372;2023-11-19T02:36:16;98609.31;;;9.71;100.00
47430;BME280;33181;49.246;7.372;2023-11-19T02:38:42;98599.06;;;9.68;100.00
47430;BME280;33181;49.246;7.372;2023-11-19T02:41:08;98586.19;;;9.65;100.00
47430;BME280;33181;49.246;7.372;2023-11-19T02:43:37;98588.91;;;9.75;100.00
47430;BME280;33181;49.246;7.372;2023-11-19T02:46:04;98586.06;;;9.78;100.00
47430;BME280;33181;49.246;7.372;2023-11-19T02:48:34;98587.34;;;9.84;100.00
47430;BME280;33181;49.246;7.372;2023-11-19T02:51:03;98577.44;;;9.87;100.00
47430;BME280;33181;49.246;7.372;2023-11-19T02:53:32;98583.53;;;9.88;100.00
47430;BME280;33181;49.246;7.372;2023-11-19T02:55:58;98580.19;;;9.86;100.00
47430;BME280;33181;49.246;7.372;2023-11-19T02:58:31;98585.50;;;9.95;100.00
47430;BME280;33181;49.246;7.372;2023-11-19T03:00:57;98588.28;;;9.94;100.00
47430;BME280;33181;49.246;7.372;2023-11-19T03:03:26;98591.16;;;9.91;100.00
47430;BME280;33181;49.246;7.372;2023-11-19T03:06:07;98582.56;;;9.89;100.00
47430;BME280;33181;49.246;7.372;2023-11-19T03:08:35;98576.63;;;9.87;100.00
47430;BME280;33181;49.246;7.372;2023-11-19T03:11:01;98581.34;;;9.93;100.00
47430;BME280;33181;49.246;7.372;2023-11-19T03:13:27;98582.94;;;9.84;100.00
47430;BME280;33181;49.246;7.372;2023-11-19T03:15:53;98576.72;;;9.96;100.00
47430;BME280;33181;49.246;7.372;2023-11-19T03:18:21;98573.69;;;10.01;100.00
47430;BME280;33181;49.246;7.372;2023-11-19T03:20:47;98573.47;;;9.93;100.00
47430;BME280;33181;49.246;7.372;2023-11-19T03:23:15;98572.78;;;9.91;100.00
47430;BME280;33181;49.246;7.372;2023-11-19T03:25:41;98573.94;;;9.98;100.00
47430;BME280;33181;49.246;7.372;2023-11-19T03:28:06;98578.84;;;9.91;100.00
47430;BME280;33181;49.246;7.372;2023-11-19T03:30:32;98582.09;;;9.84;100.00
47430;BME280;33181;49.246;7.372;2023-11-19T03:32:58;98581.25;;;9.83;100.00
47430;BME280;33181;49.246;7.372;2023-11-19T03:35:25;98586.72;;;9.91;100.00
47430;BME280;33181;49.246;7.372;2023-11-19T03:37:51;98583.13;;;9.92;100.00
47430;BME280;33181;49.246;7.372;2023-11-19T03:40:17;98572.53;;;9.94;100.00
47430;BME280;33181;49.246;7.372;2023-11-19T03:42:45;98566.22;;;9.96;100.00
47430;BME280;33181;49.246;7.372;2023-11-19T03:45:11;98572.38;;;10.07;100.00
47430;BME280;33181;49.246;7.372;2023-11-19T03:47:37;98569.91;;;9.94;100.00
47430;BME280;33181;49.246;7.372;2023-11-19T03:50:05;98576.72;;;9.96;100.00
47430;BME280;33181;49.246;7.372;2023-11-19T03:52:31;98566.22;;;9.96;100.00
47430;BME280;33181;49.246;7.372;2023-11-19T03:54:56;98564.16;;;10.00;100.00
47430;BME280;33181;49.246;7.372;2023-11-19T03:57:23;98566.91;;;9.98;100.00
47430;BME280;33181;49.246;7.372;2023-11-19T03:59:49;98565.47;;;10.06;100.00
47430;BME280;33181;49.246;7.372;2023-11-19T04:02:16;98560.00;;;9.97;100.00
47430;BME280;33181;49.246;7.372;2023-11-19T04:04:42;98570.91;;;10.14;100.00
47430;BME280;33181;49.246;7.372;2023-11-19T04:07:08;98566.97;;;10.08;100.00
47430;BME280;33181;49.246;7.372;2023-11-19T04:09:34;98558.84;;;10.11;100.00
47430;BME280;33181;49.246;7.372;2023-11-19T04:12:00;98549.78;;;10.15;100.00
47430;BME280;33181;49.246;7.372;2023-11-19T04:14:26;98550.31;;;10.09;100.00
47430;BME280;33181;49.246;7.372;2023-11-19T04:16:53;98565.28;;;10.18;100.00
47430;BME280;33181;49.246;7.372;2023-11-19T04:19:19;98569.44;;;10.21;100.00
47430;BME280;33181;49.246;7.372;2023-11-19T04:21:45;98561.44;;;10.23;100.00
47430;BME280;33181;49.246;7.372;2023-11-19T04:24:13;98556.56;;;10.29;100.00
47430;BME280;33181;49.246;7.372;2023-11-19T04:26:43;98564.56;;;10.16;100.00
47430;BME280;33181;49.246;7.372;2023-11-19T04:29:12;98550.59;;;10.27;100.00
47430;BME280;33181;49.246;7.372;2023-11-19T04:31:39;98562.13;;;10.36;100.00
47430;BME280;33181;49.246;7.372;2023-11-19T04:34:06;98557.72;;;10.36;100.00
47430;BME280;33181;49.246;7.372;2023-11-19T04:36:34;98559.19;;;10.29;100.00
47430;BME280;33181;49.246;7.372;2023-11-19T04:39:00;98559.25;;;10.39;100.00
47430;BME280;33181;49.246;7.372;2023-11-19T04:41:27;98547.78;;;10.40;100.00
47430;BME280;33181;49.246;7.372;2023-11-19T04:43:55;98553.25;;;10.48;100.00
47430;BME280;33181;49.246;7.372;2023-11-19T04:46:21;98535.50;;;10.40;100.00
47430;BME280;33181;49.246;7.372;2023-11-19T04:48:49;98544.69;;;10.56;100.00
47430;BME280;33181;49.246;7.372;2023-11-19T04:51:15;98555.66;;;10.61;100.00
47430;BME280;33181;49.246;7.372;2023-11-19T04:53:41;98543.75;;;10.57;100.00
47430;BME280;33181;49.246;7.372;2023-11-19T04:56:11;98553.19;;;10.59;100.00
47430;BME280;33181;49.246;7.372;2023-11-19T04:58:38;98543.81;;;10.66;100.00
47430;BME280;33181;49.246;7.372;2023-11-19T05:01:04;98551.44;;;10.70;100.00
47430;BME280;33181;49.246;7.372;2023-11-19T05:03:33;98543.56;;;10.70;100.00
47430;BME280;33181;49.246;7.372;2023-11-19T05:05:59;98536.81;;;10.77;100.00
47430;BME280;33181;49.246;7.372;2023-11-19T05:08:25;98539.63;;;10.85;100.00
47430;BME280;33181;49.246;7.372;2023-11-19T05:10:50;98548.09;;;10.88;100.00
47430;BME280;33181;49.246;7.372;2023-11-19T05:13:16;98553.28;;;10.79;100.00
47430;BME280;33181;49.246;7.372;2023-11-19T05:15:45;98543.34;;;10.82;100.00
47430;BME280;33181;49.246;7.372;2023-11-19T05:18:10;98544.75;;;10.86;100.00
47430;BME280;33181;49.246;7.372;2023-11-19T05:20:36;98534.13;;;10.88;100.00
47430;BME280;33181;49.246;7.372;2023-11-19T05:23:02;98539.13;;;10.91;100.00
47430;BME280;33181;49.246;7.372;2023-11-19T05:25:27;98540.81;;;11.02;100.00
47430;BME280;33181;49.246;7.372;2023-11-19T05:27:53;98538.16;;;10.92;100.00
47430;BME280;33181;49.246;7.372;2023-11-19T05:30:19;98528.59;;;10.91;100.00
47430;BME280;33181;49.246;7.372;2023-11-19T05:32:45;98536.59;;;10.89;100.00
47430;BME280;33181;49.246;7.372;2023-11-19T05:35:11;98541.38;;;11.05;100.00
47430;BME280;33181;49.246;7.372;2023-11-19T05:37:37;98539.56;;;11.06;100.00
47430;BME280;33181;49.246;7.372;2023-11-19T05:40:04;98539.31;;;11.09;100.00
47430;BME280;33181;49.246;7.372;2023-11-19T05:42:33;98545.41;;;11.09;100.00
47430;BME280;33181;49.246;7.372;2023-11-19T05:45:01;98552.06;;;11.13;100.00
47430;BME280;33181;49.246;7.372;2023-11-19T05:47:27;98547.13;;;11.20;100.00
47430;BME280;33181;49.246;7.372;2023-11-19T05:49:53;98549.19;;;11.17;100.00
47430;BME280;33181;49.246;7.372;2023-11-19T05:52:19;98547.13;;;11.20;100.00
47430;BME280;33181;49.246;7.372;2023-11-19T05:54:44;98534.66;;;11.22;100.00
47430;BME280;33181;49.246;7.372;2023-11-19T05:57:10;98550.13;;;11.16;100.00
47430;BME280;33181;49.246;7.372;2023-11-19T05:59:36;98558.06;;;11.25;100.00
47430;BME280;33181;49.246;7.372;2023-11-19T06:02:03;98552.00;;;11.34;100.00
47430;BME280;33181;49.246;7.372;2023-11-19T06:04:28;98560.00;;;11.23;100.00
47430;BME280;33181;49.246;7.372;2023-11-19T06:06:54;98553.19;;;11.21;100.00
47430;BME280;33181;49.246;7.372;2023-11-19T06:09:23;98553.75;;;11.24;100.00
47430;BME280;33181;49.246;7.372;2023-11-19T06:11:51;98558.31;;;11.22;100.00
47430;BME280;33181;49.246;7.372;2023-11-19T06:14:16;98549.59;;;11.22;100.00
47430;BME280;33181;49.246;7.372;2023-11-19T06:16:42;98556.28;;;11.26;100.00
47430;BME280;33181;49.246;7.372;2023-11-19T06:19:08;98557.22;;;11.25;100.00
47430;BME280;33181;49.246;7.372;2023-11-19T06:21:36;98557.53;;;11.31;100.00
47430;BME280;33181;49.246;7.372;2023-11-19T06:24:03;98558.72;;;11.18;100.00
47430;BME280;33181;49.246;7.372;2023-11-19T06:26:29;98555.41;;;11.25;100.00
47430;BME280;33181;49.246;7.372;2023-11-19T06:28:54;98554.78;;;11.33;100.00
47430;BME280;33181;49.246;7.372;2023-11-19T06:31:20;98558.91;;;11.26;100.00
47430;BME280;33181;49.246;7.372;2023-11-19T06:33:48;98561.53;;;11.26;100.00
47430;BME280;33181;49.246;7.372;2023-11-19T06:36:15;98567.63;;;11.26;100.00
47430;BME280;33181;49.246;7.372;2023-11-19T06:38:42;98575.63;;;11.25;100.00
47430;BME280;33181;49.246;7.372;2023-11-19T06:41:09;98580.25;;;11.32;100.00
47430;BME280;33181;49.246;7.372;2023-11-19T06:43:36;98577.88;;;11.29;100.00
47430;BME280;33181;49.246;7.372;2023-11-19T06:46:02;98579.41;;;11.32;100.00
47430;BME280;33181;49.246;7.372;2023-11-19T06:48:29;98592.81;;;11.29;100.00
47430;BME280;33181;49.246;7.372;2023-11-19T06:50:54;98583.97;;;11.30;100.00
47430;BME280;33181;49.246;7.372;2023-11-19T06:53:20;98590.63;;;11.34;100.00
47430;BME280;33181;49.246;7.372;2023-11-19T06:55:46;98586.63;;;11.40;100.00
47430;BME280;33181;49.246;7.372;2023-11-19T06:58:11;98579.44;;;11.42;100.00
47430;BME280;33181;49.246;7.372;2023-11-19T07:00:38;98581.09;;;11.43;100.00
47430;BME280;33181;49.246;7.372;2023-11-19T07:03:04;98573.22;;;11.43;100.00
47430;BME280;33181;49.246;7.372;2023-11-19T07:05:31;98569.50;;;11.45;100.00
47430;BME280;33181;49.246;7.372;2023-11-19T07:07:57;98568.69;;;11.54;100.00
47430;BME280;33181;49.246;7.372;2023-11-19T07:10:22;98586.94;;;11.46;100.00
47430;BME280;33181;49.246;7.372;2023-11-19T07:12:48;98582.66;;;11.55;100.00
47430;BME280;33181;49.246;7.372;2023-11-19T07:15:16;98597.22;;;11.59;100.00
47430;BME280;33181;49.246;7.372;2023-11-19T07:17:43;98604.28;;;11.58;100.00
47430;BME280;33181;49.246;7.372;2023-11-19T07:20:11;98605.09;;;11.59;100.00
47430;BME280;33181;49.246;7.372;2023-11-19T07:22:38;98616.44;;;11.59;100.00
47430;BME280;33181;49.246;7.372;2023-11-19T07:25:05;98622.16;;;11.65;100.00
47430;BME280;33181;49.246;7.372;2023-11-19T07:27:30;98628.69;;;11.70;100.00
47430;BME280;33181;49.246;7.372;2023-11-19T07:29:56;98622.00;;;11.66;100.00
47430;BME280;33181;49.246;7.372;2023-11-19T07:32:23;98617.34;;;11.70;100.00
47430;BME280;33181;49.246;7.372;2023-11-19T07:34:48;98627.31;;;11.76;100.00
47430;BME280;33181;49.246;7.372;2023-11-19T07:37:14;98626.63;;;11.83;100.00
47430;BME280;33181;49.246;7.372;2023-11-19T07:39:42;98641.44;;;11.75;100.00
47430;BME280;33181;49.246;7.372;2023-11-19T07:42:08;98633.13;;;11.70;100.00
47430;BME280;33181;49.246;7.372;2023-11-19T07:44:34;98632.84;;;11.73;100.00
47430;BME280;33181;49.246;7.372;2023-11-19T07:47:00;98639.25;;;11.80;100.00
47430;BME280;33181;49.246;7.372;2023-11-19T07:49:26;98633.72;;;11.83;100.00
47430;BME280;33181;49.246;7.372;2023-11-19T07:51:52;98636.25;;;11.94;100.00
47430;BME280;33181;49.246;7.372;2023-11-19T07:54:18;98639.81;;;11.83;100.00
47430;BME280;33181;49.246;7.372;2023-11-19T07:56:44;98631.41;;;11.99;100.00
47430;BME280;33181;49.246;7.372;2023-11-19T07:59:09;98626.97;;;12.00;100.00
47430;BME280;33181;49.246;7.372;2023-11-19T08:01:35;98626.16;;;12.09;100.00
47430;BME280;33181;49.246;7.372;2023-11-19T08:04:01;98630.72;;;12.07;100.00
47430;BME280;33181;49.246;7.372;2023-11-19T08:06:27;98650.28;;;12.04;100.00
47430;BME280;33181;49.246;7.372;2023-11-19T08:08:53;98652.09;;;12.14;100.00
47430;BME280;33181;49.246;7.372;2023-11-19T08:11:19;98649.28;;;11.96;100.00
47430;BME280;33181;49.246;7.372;2023-11-19T08:13:45;98642.94;;;12.08;100.00
47430;BME280;33181;49.246;7.372;2023-11-19T08:16:11;98644.03;;;12.05;100.00
47430;BME280;33181;49.246;7.372;2023-11-19T08:18:36;98635.72;;;12.00;100.00
47430;BME280;33181;49.246;7.372;2023-11-19T08:21:02;98645.97;;;12.13;100.00
47430;BME280;33181;49.246;7.372;2023-11-19T08:23:30;98648.91;;;12.20;100.00
47430;BME280;33181;49.246;7.372;2023-11-19T08:25:56;98643.78;;;12.28;100.00
47430;BME280;33181;49.246;7.372;2023-11-19T08:28:21;98661.53;;;12.26;100.00
47430;BME280;33181;49.246;7.372;2023-11-19T08:30:47;98649.50;;;12.33;100.00
47430;BME280;33181;49.246;7.372;2023-11-19T08:33:13;98659.47;;;12.29;100.00
47430;BME280;33181;49.246;7.372;2023-11-19T08:35:40;98654.06;;;12.41;100.00
47430;BME280;33181;49.246;7.372;2023-11-19T08:38:06;98662.41;;;12.56;100.00
47430;BME280;33181;49.246;7.372;2023-11-19T08:40:32;98661.00;;;12.51;100.00
47430;BME280;33181;49.246;7.372;2023-11-19T08:42:58;98658.66;;;12.48;100.00
47430;BME280;33181;49.246;7.372;2023-11-19T08:45:23;98658.22;;;12.53;100.00
47430;BME280;33181;49.246;7.372;2023-11-19T08:47:49;98662.94;;;12.59;100.00
47430;BME280;33181;49.246;7.372;2023-11-19T08:50:15;98665.44;;;12.61;100.00
47430;BME280;33181;49.246;7.372;2023-11-19T08:52:40;98669.47;;;12.74;100.00
47430;BME280;33181;49.246;7.372;2023-11-19T08:55:06;98663.38;;;12.74;100.00
47430;BME280;33181;49.246;7.372;2023-11-19T08:57:32;98662.66;;;12.82;100.00
47430;BME280;33181;49.246;7.372;2023-11-19T08:59:58;98661.09;;;12.98;100.00
47430;BME280;33181;49.246;7.372;2023-11-19T09:02:24;98663.88;;;13.07;100.00
47430;BME280;33181;49.246;7.372;2023-11-19T09:04:50;98655.81;;;12.98;100.00
47430;BME280;33181;49.246;7.372;2023-11-19T09:07:17;98659.88;;;13.03;100.00
47430;BME280;33181;49.246;7.372;2023-11-19T09:09:42;98669.88;;;12.99;100.00
47430;BME280;33181;49.246;7.372;2023-11-19T09:12:08;98674.69;;;13.04;100.00
47430;BME280;33181;49.246;7.372;2023-11-19T09:14:34;98685.97;;;12.96;100.00
47430;BME280;33181;49.246;7.372;2023-11-19T09:17:00;98694.00;;;12.94;100.00
47430;BME280;33181;49.246;7.372;2023-11-19T09:19:26;98693.44;;;13.01;100.00
47430;BME280;33181;49.246;7.372;2023-11-19T09:21:53;98694.81;;;13.05;100.00
47430;BME280;33181;49.246;7.372;2023-11-19T09:24:19;98691.78;;;12.99;100.00
47430;BME280;33181;49.246;7.372;2023-11-19T09:26:45;98681.91;;;13.02;100.00
47430;BME280;33181;49.246;7.372;2023-11-19T09:29:11;98690.81;;;12.91;100.00
47430;BME280;33181;49.246;7.372;2023-11-19T09:31:40;98694.16;;;12.93;100.00
47430;BME280;33181;49.246;7.372;2023-11-19T09:34:06;98700.53;;;12.90;100.00
47430;BME280;33181;49.246;7.372;2023-11-19T09:36:31;98690.25;;;12.97;100.00
47430;BME280;33181;49.246;7.372;2023-11-19T09:38:57;98696.22;;;13.09;100.00
47430;BME280;33181;49.246;7.372;2023-11-19T09:41:23;98702.16;;;13.11;100.00
47430;BME280;33181;49.246;7.372;2023-11-19T09:43:50;98697.03;;;13.19;100.00
47430;BME280;33181;49.246;7.372;2023-11-19T09:46:16;98689.41;;;13.26;100.00
47430;BME280;33181;49.246;7.372;2023-11-19T09:48:43;98689.94;;;13.39;100.00
47430;BME280;33181;49.246;7.372;2023-11-19T09:51:11;98682.56;;;13.33;100.00
47430;BME280;33181;49.246;7.372;2023-11-19T09:53:37;98676.94;;;13.55;100.00
47430;BME280;33181;49.246;7.372;2023-11-19T09:56:07;98678.09;;;13.80;100.00
47430;BME280;33181;49.246;7.372;2023-11-19T09:58:34;98671.81;;;13.91;100.00
47430;BME280;33181;49.246;7.372;2023-11-19T10:01:00;98673.75;;;13.89;100.00
47430;BME280;33181;49.246;7.372;2023-11-19T10:03:33;98661.06;;;14.20;100.00
47430;BME280;33181;49.246;7.372;2023-11-19T10:06:10;98661.16;;;14.46;100.00
47430;BME280;33181;49.246;7.372;2023-11-19T10:08:39;98660.50;;;14.80;99.89
47430;BME280;33181;49.246;7.372;2023-11-19T10:11:09;98661.88;;;14.84;96.64
47430;BME280;33181;49.246;7.372;2023-11-19T10:13:40;98661.31;;;14.98;95.53
47430;BME280;33181;49.246;7.372;2023-11-19T10:16:17;98653.53;;;14.97;93.85
47430;BME280;33181;49.246;7.372;2023-11-19T10:18:48;98660.94;;;14.93;92.80
47430;BME280;33181;49.246;7.372;2023-11-19T10:21:18;98654.28;;;15.07;92.59
47430;BME280;33181;49.246;7.372;2023-11-19T10:23:56;98660.22;;;15.09;90.87
47430;BME280;33181;49.246;7.372;2023-11-19T10:26:23;98664.34;;;15.29;90.93
47430;BME280;33181;49.246;7.372;2023-11-19T10:28:49;98668.66;;;15.30;89.07
47430;BME280;33181;49.246;7.372;2023-11-19T10:31:16;98673.47;;;15.35;89.28
47430;BME280;33181;49.246;7.372;2023-11-19T10:33:46;98669.56;;;15.47;86.34
47430;BME280;33181;49.246;7.372;2023-11-19T10:36:13;98666.09;;;15.47;85.76
47430;BME280;33181;49.246;7.372;2023-11-19T10:38:40;98675.22;;;15.52;86.02
47430;BME280;33181;49.246;7.372;2023-11-19T10:41:06;98665.16;;;15.56;84.97
47430;BME280;33181;49.246;7.372;2023-11-19T10:43:43;98660.78;;;15.73;82.77
47430;BME280;33181;49.246;7.372;2023-11-19T10:46:13;98662.03;;;15.87;82.18
47430;BME280;33181;49.246;7.372;2023-11-19T10:48:40;98662.56;;;15.98;81.25
47430;BME280;33181;49.246;7.372;2023-11-19T10:51:07;98652.03;;;16.23;80.41
47430;BME280;33181;49.246;7.372;2023-11-19T10:53:38;98649.03;;;16.18;79.19
47430;BME280;33181;49.246;7.372;2023-11-19T10:56:10;98651.34;;;16.13;79.26
47430;BME280;33181;49.246;7.372;2023-11-19T10:58:37;98641.53;;;15.97;78.94
47430;BME280;33181;49.246;7.372;2023-11-19T11:01:16;98642.84;;;15.93;79.91
47430;BME280;33181;49.246;7.372;2023-11-19T11:03:44;98637.63;;;15.75;78.24
47430;BME280;33181;49.246;7.372;2023-11-19T11:06:12;98630.69;;;15.82;79.30
47430;BME280;33181;49.246;7.372;2023-11-19T11:08:39;98631.19;;;15.78;79.02
47430;BME280;33181;49.246;7.372;2023-11-19T11:11:06;98634.53;;;15.88;79.62
47430;BME280;33181;49.246;7.372;2023-11-19T11:13:33;98642.81;;;15.85;77.34
47430;BME280;33181;49.246;7.372;2023-11-19T11:16:00;98639.19;;;15.94;79.30
47430;BME280;33181;49.246;7.372;2023-11-19T11:18:26;98639.56;;;15.99;78.53
47430;BME280;33181;49.246;7.372;2023-11-19T11:21:15;98636.28;;;16.30;78.17
47430;BME280;33181;49.246;7.372;2023-11-19T11:24:13;98631.81;;;16.22;76.29
47430;BME280;33181;49.246;7.372;2023-11-19T11:27:02;98612.38;;;15.97;76.22
47430;BME280;33181;49.246;7.372;2023-11-19T11:35:52;98616.78;;;15.46;77.99
47430;BME280;33181;49.246;7.372;2023-11-19T11:38:22;98617.69;;;15.63;76.71
47430;BME280;33181;49.246;7.372;2023-11-19T11:41:16;98610.88;;;15.60;75.18
47430;BME280;33181;49.246;7.372;2023-11-19T11:43:50;98612.88;;;15.58;76.24
47430;BME280;33181;49.246;7.372;2023-11-19T11:49:08;98615.03;;;15.63;75.14
47430;BME280;33181;49.246;7.372;2023-11-19T11:54:27;98615.16;;;15.19;77.62
47430;BME280;33181;49.246;7.372;2023-11-19T11:57:12;98608.13;;;15.01;78.30
47430;BME280;33181;49.246;7.372;2023-11-19T12:02:09;98602.41;;;15.14;78.39
47430;BME280;33181;49.246;7.372;2023-11-19T12:04:35;98598.66;;;15.25;77.06
47430;BME280;33181;49.246;7.372;2023-11-19T12:07:17;98597.75;;;15.08;75.87
47430;BME280;33181;49.246;7.372;2023-11-19T12:09:51;98600.63;;;14.97;75.84
47430;BME280;33181;49.246;7.372;2023-11-19T12:12:28;98603.28;;;14.97;76.52
47430;BME280;33181;49.246;7.372;2023-11-19T12:15:09;98603.75;;;15.18;75.67
47430;BME280;33181;49.246;7.372;2023-11-19T12:17:50;98588.50;;;15.12;75.61
47430;BME280;33181;49.246;7.372;2023-11-19T12:20:23;98582.63;;;15.00;75.09
47430;BME280;33181;49.246;7.372;2023-11-19T12:22:51;98577.09;;;14.86;75.82
47430;BME280;33181;49.246;7.372;2023-11-19T12:25:18;98575.47;;;14.93;75.40
47430;BME280;33181;49.246;7.372;2023-11-19T12:27:47;98570.47;;;15.07;74.89
47430;BME280;33181;49.246;7.372;2023-11-19T12:30:24;98574.31;;;15.21;71.58
47430;BME280;33181;49.246;7.372;2023-11-19T12:32:51;98554.03;;;15.30;69.83
47430;BME280;33181;49.246;7.372;2023-11-19T12:35:19;98557.88;;;15.36;68.87
47430;BME280;33181;49.246;7.372;2023-11-19T12:37:47;98551.94;;;15.50;69.24
47430;BME280;33181;49.246;7.372;2023-11-19T12:40:21;98551.94;;;15.50;68.33
47430;BME280;33181;49.246;7.372;2023-11-19T12:42:48;98555.22;;;15.44;68.62
47430;BME280;33181;49.246;7.372;2023-11-19T12:45:15;98551.75;;;15.43;68.14
47430;BME280;33181;49.246;7.372;2023-11-19T12:47:45;98540.19;;;15.44;68.65
47430;BME280;33181;49.246;7.372;2023-11-19T12:50:13;98545.00;;;15.49;67.78
47430;BME280;33181;49.246;7.372;2023-11-19T12:52:39;98541.03;;;15.53;67.67
47430;BME280;33181;49.246;7.372;2023-11-19T12:55:31;98545.22;;;15.64;67.88
47430;BME280;33181;49.246;7.372;2023-11-19T12:57:58;98538.31;;;15.79;68.38
47430;BME280;33181;49.246;7.372;2023-11-19T13:00:28;98528.44;;;15.97;67.85
47430;BME280;33181;49.246;7.372;2023-11-19T13:02:56;98544.00;;;16.01;67.51
47430;BME280;33181;49.246;7.372;2023-11-19T13:05:27;98548.41;;;15.75;67.08
47430;BME280;33181;49.246;7.372;2023-11-19T13:08:08;98548.97;;;15.53;68.32
47430;BME280;33181;49.246;7.372;2023-11-19T13:10:52;98537.66;;;15.26;68.95
47430;BME280;33181;49.246;7.372;2023-11-19T13:13:19;98549.56;;;15.30;70.09